Data for 11/23/2016

Time Sea-Level Adjusted Pressure Absolute Pressure Temperature Relative Humidity Dew Point   
(mb) (inHg) (mb) (inHg) (C) (F) (%) (C) (F)
00:05 1019 30.09 848 25.04 0.4 32.7 53 -8 17.5
00:10 1019 30.09 848 25.04 0.4 32.6 53 -8.1 17.4
00:15 1019 30.09 848 25.04 0.4 32.7 53 -8.2 17.3
00:20 1019 30.09 848 25.04 0.4 32.6 53 -8.1 17.5
00:25 1019 30.09 848 25.04 0.3 32.5 54 -8.1 17.5
00:30 1019 30.09 848 25.04 0.2 32.3 54 -8.2 17.3
00:35 1019 30.09 848 25.04 0.1 32.2 54 -8.2 17.3
00:40 1019 30.09 848 25.04 0.1 32.1 54 -8.3 17.1
00:45 1019 30.09 848 25.04 0.1 32.1 54 -8.3 17.1
00:50 1019 30.09 848 25.04 0.1 32.2 53 -8.5 16.8
00:55 1019 30.09 848 25.04 0.1 32.3 53 -8.3 17
01:00 1019 30.09 848 25.04 0.1 32.1 53 -8.4 16.9
01:05 1019 30.09 848 25.04 0.1 32.2 52 -8.5 16.7
01:10 1019 30.09 848 25.04 0.1 32.2 53 -8.4 16.8
01:15 1019 30.09 848 25.04 -0.2 31.7 54 -8.3 17
01:20 1019 30.09 848 25.04 -0.3 31.5 54 -8.5 16.7
01:25 1019 30.09 848 25.04 -0.3 31.4 54 -8.6 16.6
01:30 1019 30.09 848 25.04 -0.2 31.6 54 -8.5 16.7
01:35 1019 30.09 848 25.04 -0.1 31.9 52 -8.8 16.2
01:40 1019 30.09 848 25.04 0.1 32.1 53 -8.5 16.7
01:45 1019 30.09 848 25.04 -0.1 31.9 53 -8.5 16.6
01:50 1019 30.09 848 25.04 -0.1 31.9 53 -8.6 16.5
01:55 1019 30.09 848 25.04 0 32 51 -9 15.8
02:00 1019 30.09 848 25.04 0.2 32.3 52 -8.6 16.5
02:05 1019 30.09 848 25.04 -0 32 52 -8.7 16.3
02:10 1018 30.06 848 25.04 -0 32 52 -8.7 16.3
02:15 1018 30.06 848 25.04 -0.2 31.7 52 -8.9 16
02:20 1018 30.06 847 25.01 -0.2 31.6 52 -9 15.9
02:25 1018 30.06 847 25.01 -0.2 31.6 52 -8.9 16
02:30 1018 30.06 847 25.01 -0.2 31.6 53 -8.8 16.2
02:35 1018 30.06 847 25.01 -0.3 31.5 53 -8.7 16.3
02:40 1018 30.06 847 25.01 -0.4 31.3 54 -8.7 16.4
02:45 1018 30.06 847 25.01 -0.5 31 53 -9 15.9
02:50 1018 30.06 847 25.01 -0.5 31.2 53 -9 15.9
02:55 1018 30.06 847 25.01 -0.6 31 53 -9 15.9
03:00 1018 30.06 847 25.01 -0.6 30.9 53 -9 15.9
03:05 1018 30.06 847 25.01 -0.6 30.9 54 -8.9 16
03:10 1018 30.06 847 25.01 -0.6 30.9 54 -8.8 16.1
03:15 1018 30.06 847 25.01 -0.5 31.1 53 -8.9 16
03:20 1018 30.06 847 25.01 -0.3 31.4 53 -8.8 16.1
03:25 1018 30.06 847 25.01 -0.2 31.6 53 -8.8 16.2
03:30 1018 30.06 847 25.01 -0.1 31.9 52 -8.8 16.2
03:35 1018 30.06 847 25.01 -0 32 52 -8.6 16.5
03:40 1018 30.06 847 25.01 -0.1 31.9 53 -8.5 16.7
03:45 1017 30.03 847 25.01 -0.2 31.7 54 -8.4 16.9
03:50 1017 30.03 847 25.01 -0.3 31.4 55 -8.4 17
03:55 1017 30.03 847 25.01 -0.3 31.4 55 -8.3 17.1
04:00 1017 30.03 847 25.01 -0.4 31.4 55 -8.4 17
04:05 1017 30.03 847 25.01 -0.3 31.4 54 -8.6 16.6
04:10 1017 30.03 847 25.01 -0.1 31.8 54 -8.3 17.1
04:15 1017 30.03 846 24.98 -0.2 31.6 54 -8.5 16.7
04:20 1017 30.03 846 24.98 -0.1 31.8 54 -8.3 17.1
04:25 1017 30.03 846 24.98 -0.1 31.8 54 -8.4 16.9
04:30 1017 30.03 846 24.98 -0 32 54 -8.3 17
04:35 1017 30.03 846 24.98 -0 32 54 -8.3 17
04:40 1017 30.03 846 24.98 0.1 32.2 53 -8.4 16.9
04:45 1017 30.03 846 24.98 0.2 32.4 53 -8.4 17
04:50 1017 30.03 846 24.98 0.2 32.4 53 -8.3 17.1
04:55 1017 30.03 846 24.98 0.1 32.2 53 -8.4 16.8
05:00 1017 30.03 846 24.98 0.1 32.2 53 -8.4 16.9
05:05 1017 30.03 846 24.98 0.1 32.2 53 -8.4 16.9
05:10 1017 30.03 846 24.98 0.2 32.4 51 -8.6 16.5
05:15 1017 30.03 846 24.98 0.4 32.8 52 -8.3 17
05:20 1017 30.03 846 24.98 0.4 32.7 52 -8.5 16.7
05:25 1017 30.03 846 24.98 0.6 33 52 -8.3 17.1
05:30 1017 30.03 846 24.98 0.4 32.8 52 -8.2 17.2
05:35 1017 30.03 846 24.98 0.3 32.6 52 -8.3 17
05:40 1017 30.03 846 24.98 0.3 32.5 53 -8.3 17.1
05:45 1017 30.03 846 24.98 0.2 32.3 52 -8.4 16.8
05:50 1017 30.03 846 24.98 0.2 32.3 53 -8.3 17
05:55 1017 30.03 846 24.98 0.1 32.2 53 -8.3 17
06:00 1017 30.03 846 24.98 0.1 32.2 53 -8.4 16.9
06:05 1016 30 846 24.98 0.3 32.5 52 -8.5 16.6
06:10 1016 30 846 24.98 0.4 32.7 51 -8.5 16.7
06:15 1016 30 846 24.98 0.2 32.4 53 -8.4 16.9
06:20 1016 30 846 24.98 0.1 32.1 53 -8.5 16.7
06:25 1016 30 845 24.95 0.1 32.3 52 -8.5 16.7
06:30 1016 30 845 24.95 0.2 32.4 52 -8.4 16.8
06:35 1016 30 845 24.95 0.4 32.7 51 -8.6 16.6
06:40 1016 30 845 24.95 0.6 33.1 51 -8.3 17
06:45 1016 30 845 24.95 0.5 33 52 -8.3 17
06:50 1016 30 845 24.95 0.5 32.9 52 -8.2 17.3
06:55 1016 30 845 24.95 0.5 32.8 52 -8.3 17
07:00 1016 30 845 24.95 0.6 33 52 -8.3 17.1
07:05 1016 30 845 24.95 0.8 33.4 50 -8.4 16.8
07:10 1016 30 845 24.95 1 33.8 50 -8.3 17
07:15 1016 30 845 24.95 1.1 34 50 -8.1 17.4
07:20 1016 30 845 24.95 1 33.8 50 -8.2 17.3
07:25 1016 30 845 24.95 1.2 34.1 49 -8.3 17.1
07:30 1016 30 845 24.95 1.5 34.7 47 -8.7 16.3
07:35 1016 30 845 24.95 1.7 35.1 47 -8.4 16.9
07:40 1016 30 845 24.95 1.4 34.5 48 -8.3 17
07:45 1016 30 845 24.95 1.2 34.2 49 -8.4 16.9
07:50 1016 30 845 24.95 1.1 34 50 -8.1 17.4
07:55 1016 30 845 24.95 1 33.9 50 -8.2 17.3
08:00 1016 30 845 24.95 0.9 33.6 52 -7.8 17.9
08:05 1016 30 845 24.95 0.9 33.6 51 -8.2 17.2
08:10 1015 29.97 845 24.95 1 33.9 50 -8.2 17.2
08:15 1015 29.97 845 24.95 0.9 33.7 52 -7.9 17.7
08:20 1015 29.97 845 24.95 0.7 33.2 52 -8 17.6
08:25 1015 29.97 845 24.95 0.7 33.3 53 -7.8 18
08:30 1015 29.97 845 24.95 0.5 33 54 -7.7 18.2
08:35 1015 29.97 844 24.92 0.5 32.8 54 -7.7 18.1
08:40 1015 29.97 845 24.95 0.6 33.1 54 -7.8 18
08:45 1015 29.97 844 24.92 0.7 33.3 53 -7.7 18.1
08:50 1015 29.97 845 24.95 0.9 33.6 52 -7.8 17.9
08:55 1015 29.97 845 24.95 1 33.7 51 -8 17.6
09:00 1015 29.97 844 24.92 1 33.8 52 -7.8 17.9
09:05 1015 29.97 844 24.92 1 33.7 53 -7.6 18.2
09:10 1015 29.97 844 24.92 0.9 33.6 53 -7.6 18.3
09:15 1015 29.97 844 24.92 0.9 33.7 52 -7.8 18
09:20 1015 29.97 844 24.92 1.2 34.1 51 -7.8 18
09:25 1015 29.97 844 24.92 1.2 34.1 53 -7.5 18.5
09:30 1015 29.97 844 24.92 1.1 33.9 53 -7.4 18.7
09:35 1015 29.97 844 24.92 1.2 34.2 52 -7.6 18.4
09:40 1015 29.97 844 24.92 1.3 34.3 52 -7.4 18.7
09:45 1015 29.97 844 24.92 1.4 34.5 52 -7.4 18.7
09:50 1015 29.97 844 24.92 1.5 34.7 52 -7.4 18.6
09:55 1015 29.97 844 24.92 1.7 35 50 -7.6 18.4
10:00 1015 29.97 844 24.92 2 35.6 50 -7.4 18.6
10:05 1015 29.97 844 24.92 2 35.7 49 -7.6 18.4
10:10 1015 29.97 844 24.92 2.1 35.8 50 -7.1 19.2
10:15 1015 29.97 844 24.92 2 35.5 50 -7.4 18.6
10:20 1015 29.97 844 24.92 2.1 35.7 50 -7.4 18.7
10:25 1015 29.97 844 24.92 2.1 35.8 49 -7.5 18.5
10:30 1015 29.97 844 24.92 2.2 36 49 -7.3 18.9
10:35 1015 29.97 844 24.92 2.4 36.3 49 -7.2 19
10:40 1015 29.97 844 24.92 2.5 36.6 48 -7.4 18.6
10:45 1015 29.97 844 24.92 2.8 37 47 -7.5 18.5
10:50 1015 29.97 844 24.92 3 37.4 47 -7.3 18.8
10:55 1015 29.97 844 24.92 3.1 37.5 47 -7.1 19.3
11:00 1015 29.97 844 24.92 3.1 37.6 47 -7.1 19.2
11:05 1015 29.97 844 24.92 3.3 37.9 47 -7.1 19.2
11:10 1015 29.97 844 24.92 3.5 38.4 46 -7.1 19.2
11:15 1015 29.97 844 24.92 4.1 39.3 44 -7.2 19.1
11:20 1015 29.97 844 24.92 4.6 40.3 41 -7.4 18.6
11:25 1015 29.97 844 24.92 4.7 40.5 42 -7.2 19.1
11:30 1015 29.97 844 24.92 4.6 40.3 43 -7 19.3
11:35 1015 29.97 844 24.92 4.4 39.9 46 -6.4 20.5
11:40 1015 29.97 845 24.95 4.2 39.5 46 -6.3 20.6
11:45 1015 29.97 844 24.92 4.1 39.4 45 -6.8 19.8
11:50 1015 29.97 844 24.92 4 39.2 44 -7.3 18.9
11:55 1015 29.97 844 24.92 3.9 39.1 43 -7.5 18.5
12:00 1015 29.97 844 24.92 3.8 38.9 43 -7.8 18
12:05 1015 29.97 844 24.92 4 39.1 43 -7.6 18.4
12:10 1015 29.97 844 24.92 4.3 39.7 42 -7.7 18.2
12:15 1015 29.97 844 24.92 4.4 40 40 -8.1 17.4
12:20 1015 29.97 844 24.92 4.2 39.6 38 -8.9 16
12:25 1015 29.97 844 24.92 4.3 39.8 38 -8.8 16.1
12:30 1015 29.97 844 24.92 4.5 40.2 38 -8.5 16.6
12:35 1014 29.94 844 24.92 4.7 40.5 37 -8.8 16.1
12:40 1014 29.94 844 24.92 4.7 40.5 38 -8.6 16.6
12:45 1014 29.94 843 24.89 5.1 41.2 37 -8.3 17.1
12:50 1014 29.94 843 24.89 5.1 41.2 40 -7.6 18.4
12:55 1014 29.94 843 24.89 5 41.1 39 -7.7 18.1
13:00 1014 29.94 843 24.89 5.2 41.4 39 -7.6 18.4
13:05 1014 29.94 843 24.89 5.4 41.7 37 -8 17.5
13:10 1014 29.94 843 24.89 5.3 41.5 38 -7.8 17.9
13:15 1014 29.94 843 24.89 5.7 42.2 37 -7.9 17.8
13:20 1014 29.94 843 24.89 5.5 41.9 37 -8.1 17.3
13:25 1014 29.94 843 24.89 5.6 42.2 36 -8.3 17.1
13:30 1014 29.94 843 24.89 6.1 42.9 36 -7.8 18
13:35 1014 29.94 843 24.89 6.3 43.4 37 -7.4 18.7
13:40 1014 29.94 843 24.89 6.3 43.4 38 -7 19.5
13:45 1014 29.94 843 24.89 6.2 43.2 39 -6.6 20.1
13:50 1014 29.94 843 24.89 6.1 42.9 39 -7 19.5
13:55 1014 29.94 843 24.89 5.9 42.6 40 -6.6 20.1
14:00 1014 29.94 843 24.89 5.9 42.6 42 -5.9 21.3
14:05 1014 29.94 843 24.89 5.8 42.4 42 -6 21.2
14:10 1014 29.94 843 24.89 5.5 41.9 44 -5.9 21.4
14:15 1014 29.94 843 24.89 5.2 41.4 46 -5.5 22.2
14:20 1013 29.91 843 24.89 4.7 40.5 47 -5.5 22.1
14:25 1013 29.91 843 24.89 4.5 40.2 48 -5.5 22.1
14:30 1013 29.91 843 24.89 4.7 40.4 48 -5.3 22.4
14:35 1013 29.91 843 24.89 4.6 40.3 49 -5.1 22.8
14:40 1013 29.91 843 24.89 4.1 39.4 55 -4.1 24.6
14:45 1013 29.91 843 24.89 3.8 38.8 57 -4 24.8
14:50 1013 29.91 843 24.89 3.9 39 57 -4 24.8
14:55 1014 29.94 843 24.89 4 39.1 58 -3.6 25.5
15:00 1014 29.94 843 24.89 3.8 38.8 60 -3.4 25.9
15:05 1014 29.94 843 24.89 3.5 38.3 62 -3.1 26.3
15:10 1014 29.94 843 24.89 3.4 38 62 -3.2 26.3
15:15 1014 29.94 843 24.89 3.4 38.1 62 -3.2 26.3
15:20 1014 29.94 843 24.89 3.4 38.2 62 -3.2 26.3
15:25 1014 29.94 843 24.89 3.7 38.6 58 -3.9 25
15:30 1014 29.94 843 24.89 4 39.2 55 -4.2 24.5
15:35 1014 29.94 843 24.89 4.2 39.6 53 -4.4 24.1
15:40 1014 29.94 843 24.89 4.3 39.8 57 -3.4 25.9
15:45 1014 29.94 843 24.89 4.1 39.4 56 -3.9 25
15:50 1014 29.94 843 24.89 4 39.2 56 -4 24.8
15:55 1014 29.94 843 24.89 4.1 39.4 57 -3.7 25.3
16:00 1014 29.94 843 24.89 4.1 39.3 58 -3.5 25.7
16:05 1014 29.94 843 24.89 4 39.1 58 -3.6 25.5
16:10 1014 29.94 843 24.89 3.9 39 60 -3.2 26.2
16:15 1014 29.94 843 24.89 3.9 39 59 -3.4 25.8
16:20 1014 29.94 843 24.89 3.8 38.8 59 -3.5 25.7
16:25 1014 29.94 843 24.89 3.8 38.9 60 -3.3 26.1
16:30 1014 29.94 843 24.89 3.9 39 61 -3 26.6
16:35 1014 29.94 843 24.89 3.7 38.6 63 -2.7 27.1
16:40 1014 29.94 843 24.89 3.3 37.9 63 -3 26.6
16:45 1014 29.94 843 24.89 3.2 37.7 65 -2.8 26.9
16:50 1014 29.94 843 24.89 3 37.5 66 -2.6 27.2
16:55 1014 29.94 843 24.89 3 37.4 68 -2.4 27.7
17:00 1014 29.94 843 24.89 2.9 37.3 69 -2.1 28.2
17:05 1014 29.94 843 24.89 2.8 37 71 -2 28.4
17:10 1014 29.94 843 24.89 2.7 36.8 71 -2 28.3
17:15 1014 29.94 843 24.89 2.5 36.6 72 -2 28.4
17:20 1014 29.94 843 24.89 2.4 36.4 73 -2 28.4
17:25 1014 29.94 843 24.89 2.4 36.3 73 -2 28.4
17:30 1014 29.94 843 24.89 2.4 36.2 73 -2 28.3
17:35 1014 29.94 843 24.89 2.3 36.1 73 -2.1 28.3
17:40 1014 29.94 843 24.89 2.3 36.1 72 -2.2 28.1
17:45 1014 29.94 843 24.89 2.3 36.1 72 -2.3 27.9
17:50 1014 29.94 843 24.89 2.3 36.2 72 -2.2 28.1
17:55 1014 29.94 843 24.89 2.3 36.1 72 -2.3 27.9
18:00 1014 29.94 843 24.89 2.3 36.2 72 -2.2 28
18:05 1014 29.94 843 24.89 2.3 36.1 72 -2.2 28.1
18:10 1014 29.94 843 24.89 2.3 36.1 73 -2.1 28.1
18:15 1014 29.94 843 24.89 2.2 35.9 73 -2.2 28.1
18:20 1014 29.94 843 24.89 2.1 35.8 73 -2.2 28
18:25 1014 29.94 843 24.89 2.1 35.7 73 -2.4 27.8
18:30 1014 29.94 843 24.89 2.1 35.8 72 -2.4 27.7
18:35 1014 29.94 843 24.89 2.1 35.8 71 -2.5 27.5
18:40 1014 29.94 843 24.89 2.1 35.7 71 -2.6 27.4
18:45 1014 29.94 843 24.89 2.1 35.7 72 -2.5 27.6
18:50 1014 29.94 843 24.89 2 35.6 72 -2.5 27.5
18:55 1014 29.94 843 24.89 2 35.6 73 -2.4 27.7
19:00 1014 29.94 843 24.89 1.9 35.4 73 -2.4 27.6
19:05 1014 29.94 843 24.89 1.9 35.4 73 -2.4 27.7
19:10 1014 29.94 843 24.89 1.9 35.4 74 -2.3 27.9
19:15 1014 29.94 843 24.89 1.6 35 76 -2.1 28.1
19:20 1014 29.94 843 24.89 1.3 34.4 77 -2.3 27.8
19:25 1014 29.94 843 24.89 1.3 34.4 77 -2.3 27.8
19:30 1014 29.94 843 24.89 1.3 34.3 76 -2.4 27.7
19:35 1014 29.94 843 24.89 1.2 34.1 77 -2.4 27.7
19:40 1014 29.94 843 24.89 1.2 34.1 77 -2.5 27.5
19:45 1014 29.94 843 24.89 1.2 34.2 75 -2.6 27.3
19:50 1014 29.94 844 24.92 1.2 34.2 75 -2.7 27.2
19:55 1014 29.94 844 24.92 1.2 34.1 75 -2.7 27.1
20:00 1015 29.97 844 24.92 1.1 34 76 -2.7 27.1
20:05 1015 29.97 844 24.92 1.1 34 75 -2.9 26.8
20:10 1015 29.97 844 24.92 1.3 34.4 74 -2.9 26.8
20:15 1015 29.97 844 24.92 1.4 34.5 73 -3 26.6
20:20 1015 29.97 844 24.92 1.5 34.6 71 -3.2 26.3
20:25 1016 30 845 24.95 1.4 34.5 71 -3.4 26
20:30 1016 30 845 24.95 1 33.9 78 -2.4 27.7
20:35 1016 30 845 24.95 0.7 33.2 83 -1.9 28.5
20:40 1016 30 846 24.98 0.1 32.2 86 -1.9 28.6
20:45 1017 30.03 846 24.98 -0.3 31.4 89 -1.9 28.6
20:50 1017 30.03 846 24.98 -0.6 31 91 -1.8 28.7
20:55 1017 30.03 846 24.98 -0.7 30.8 92 -1.8 28.7
21:00 1017 30.03 846 24.98 -0.7 30.7 92 -1.8 28.8
21:05 1017 30.03 846 24.98 -0.7 30.7 93 -1.8 28.8
21:10 1017 30.03 846 24.98 -0.8 30.6 93 -1.8 28.8
21:15 1017 30.03 847 25.01 -0.8 30.6 93 -1.7 28.9
21:20 1017 30.03 847 25.01 -0.8 30.6 93 -1.7 28.9
21:25 1018 30.06 847 25.01 -0.7 30.7 93 -1.7 29
21:30 1018 30.06 847 25.01 -0.7 30.7 94 -1.7 29
21:35 1018 30.06 847 25.01 -0.7 30.7 94 -1.6 29.1
21:40 1018 30.06 847 25.01 -0.7 30.7 94 -1.6 29
21:45 1018 30.06 847 25.01 -0.8 30.6 94 -1.7 29
21:50 1018 30.06 847 25.01 -0.8 30.6 94 -1.7 28.9
21:55 1018 30.06 847 25.01 -0.8 30.5 94 -1.8 28.8
22:00 1018 30.06 847 25.01 -0.9 30.4 93 -1.8 28.7
22:05 1018 30.06 847 25.01 -0.9 30.4 93 -1.8 28.7
22:10 1018 30.06 847 25.01 -0.9 30.5 94 -1.8 28.8
22:15 1018 30.06 848 25.04 -0.8 30.5 93 -1.8 28.8
22:20 1018 30.06 848 25.04 -0.8 30.5 94 -1.7 28.9
22:25 1018 30.06 848 25.04 -0.8 30.6 94 -1.7 28.9
22:30 1018 30.06 848 25.04 -0.8 30.6 94 -1.7 28.9
22:35 1018 30.06 848 25.04 -0.8 30.6 94 -1.7 29
22:40 1019 30.09 848 25.04 -0.8 30.6 94 -1.7 29
22:45 1019 30.09 848 25.04 -0.7 30.7 94 -1.6 29.1
22:50 1019 30.09 848 25.04 -0.7 30.7 94 -1.6 29.1
22:55 1019 30.09 848 25.04 -0.7 30.7 94 -1.6 29.1
23:00 1019 30.09 848 25.04 -0.7 30.7 94 -1.6 29.1
23:05 1019 30.09 848 25.04 -0.7 30.7 94 -1.6 29.1
23:10 1019 30.09 848 25.04 -0.8 30.6 94 -1.7 29
23:15 1019 30.09 848 25.04 -0.8 30.5 94 -1.7 28.9
23:20 1019 30.09 848 25.04 -0.8 30.5 94 -1.7 28.9
23:25 1019 30.09 848 25.04 -0.8 30.6 94 -1.7 29
23:30 1019 30.09 848 25.04 -0.7 30.7 94 -1.7 29
23:35 1019 30.09 848 25.04 -0.8 30.6 93 -1.7 29
23:40 1019 30.09 848 25.04 -0.8 30.6 93 -1.7 28.9
23:45 1019 30.09 849 25.07 -0.8 30.6 92 -2 28.5
23:50 1020 30.12 849 25.07 -0.8 30.6 89 -2.3 27.8
23:55 1020 30.12 849 25.07 -0.7 30.7 86 -2.8 26.9
24:00 1020 30.12 849 25.07 -0.7 30.8 86 -2.7 27.1